METAR Data
IDs: Format: Raw Decoded Include TAF

Data at: 2209 UTC 02 Aug 2021

KFET 022155Z AUTO 12003KT 10SM SCT050 26/15 A3014 RMK AO2 T02600146